Time;durP1;ratioP1;P1;durP2;ratioP2;P2;SDS_P1;SDS_P2;PMS_P1;PMS_P2;Temp;Humidity;BMP_temperature;BMP_pressure;BME280_temperature;BME280_humidity;BME280_pressure;Samples;Min_cycle;Max_cycle;Signal;HPM_P1;HPM_P2
2023/09/21 00:13:28;1340048.00;4.47;2345.59;0.00;0.00;0.62;;;;;19.10;2.40;;;;;;2266589;61;993;-91
2023/09/21 00:15:56;76274.00;0.25;132.60;0.00;0.00;0.62;;;;;19.20;1.50;;;;;;2264082;61;1640;-91
2023/09/21 00:18:23;300422.00;1.00;518.65;39785.00;0.13;69.52;;;;;19.20;1.50;;;;;;2264635;61;1076;-91
2023/09/21 00:31:04;1380238.00;4.60;2419.72;74638.00;0.25;129.77;;;;;19.90;1.00;;;;;;2263418;61;1360;-90
2023/09/21 01:26:05;1078574.00;3.60;1872.15;2185.00;0.01;4.41;;;;;20.60;1.00;;;;;;2506304;55;3585;31
2023/09/21 03:01:31;808842.00;2.70;1396.55;0.00;0.00;0.62;;;;;19.70;1.00;;;;;;2266416;61;1384;-91
2023/09/21 03:12:26;0.00;0.00;0.62;0.00;0.00;0.62;;;;;20.20;1.00;;;;;;2267115;61;339;-91
2023/09/21 03:42:17;1071343.00;3.57;1859.25;26243.00;0.09;46.08;;;;;19.70;1.00;;;;;;2503514;40;3418;31
2023/09/21 04:12:17;1075927.00;3.59;1867.43;23484.00;0.08;41.30;;;;;20.20;1.00;;;;;;2502993;55;3572;31
2023/09/21 04:29:51;928426.00;3.09;1606.10;0.00;0.00;0.62;;;;;20.20;1.00;;;;;;2503893;40;3428;31
2023/09/21 04:57:36;955096.00;3.18;1653.10;75280.00;0.25;130.88;;;;;19.60;2.70;;;;;;2503645;55;3622;31
2023/09/21 05:05:04;1037686.00;3.46;1799.33;79904.00;0.27;138.87;;;;;19.60;2.40;;;;;;2120666;40;3557;-89
2023/09/21 05:32:33;1430221.00;4.77;2512.49;17409.00;0.06;30.78;;;;;20.60;1.00;;;;;;2270779;61;1016;-90
2023/09/21 06:00:04;935187.00;3.12;1618.01;0.00;0.00;0.62;;;;;21.30;1.00;;;;;;2266629;61;1345;-89
2023/09/21 06:05:03;1086499.00;3.62;1886.30;0.00;0.00;0.62;;;;;21.50;1.00;;;;;;2266189;61;1317;-90
2023/09/21 06:07:31;292599.00;0.98;505.20;0.00;0.00;0.62;;;;;21.90;1.00;;;;;;2264299;61;2004;-90
2023/09/21 06:14:58;881694.00;2.94;1523.99;0.00;0.00;0.62;;;;;21.90;1.00;;;;;;2266962;61;1215;-91
2023/09/21 07:48:09;1008024.00;3.36;1746.69;6885.00;0.02;12.55;;;;;27.70;1.00;;;;;;1678700;55;3632;-88
2023/09/21 07:53:05;1285307.00;4.28;2245.24;39638.00;0.13;69.26;;;;;28.60;1.00;;;;;;2267018;61;1012;-92
2023/09/21 08:08:06;807250.00;2.69;1393.77;402.00;0.00;1.32;;;;;28.20;1.00;;;;;;1962453;40;3483;-90
2023/09/21 08:10:33;174307.00;0.58;301.69;0.00;0.00;0.62;;;;;27.70;1.00;;;;;;2271029;61;1753;-90
2023/09/21 08:15:29;739384.00;2.46;1275.60;0.00;0.00;0.62;;;;;27.40;1.00;;;;;;2294637;40;3475;-89
2023/09/21 08:38:04;348286.00;1.16;600.92;0.00;0.00;0.62;;;;;27.70;1.00;;;;;;2288198;55;3660;-90
2023/09/21 08:45:41;17487.00;0.06;30.92;0.00;0.00;0.62;;;;;28.20;1.00;;;;;;1637880;59;2693;-91
2023/09/21 08:50:42;272901.00;0.91;471.33;0.00;0.00;0.62;;;;;28.40;1.00;;;;;;2261746;61;1401;-87
2023/09/21 08:55:42;705513.00;2.35;1216.80;0.00;0.00;0.62;;;;;28.20;1.00;;;;;;2270889;61;1325;-94
2023/09/21 09:00:41;495107.00;1.65;853.40;0.00;0.00;0.62;;;;;28.50;1.00;;;;;;2270827;61;1328;-92
2023/09/21 09:03:09;170989.00;0.57;295.97;0.00;0.00;0.62;;;;;29.00;1.00;;;;;;2268977;61;1647;-91
2023/09/21 09:08:06;303387.00;1.01;523.74;0.00;0.00;0.62;;;;;29.00;1.00;;;;;;2280372;40;3618;-90
2023/09/21 09:10:42;128143.00;0.43;222.13;0.00;0.00;0.62;;;;;29.00;1.00;;;;;;2282539;40;3649;-90
2023/09/21 09:13:09;106632.00;0.36;185.02;0.00;0.00;0.62;;;;;29.00;1.00;;;;;;2271387;56;3745;-90
2023/09/21 09:15:38;317499.00;1.06;548.00;0.00;0.00;0.62;;;;;28.50;1.00;;;;;;2276111;56;3833;-90
2023/09/21 09:23:16;855581.00;2.85;1478.24;0.00;0.00;0.62;;;;;29.30;1.00;;;;;;1964131;40;3478;-92
2023/09/21 09:30:53;411100.00;1.37;708.89;0.00;0.00;0.62;;;;;29.10;1.00;;;;;;618908;40;3357;-90
2023/09/21 09:51:06;996601.00;3.32;1726.45;123910.00;0.41;214.83;;;;;29.40;1.00;;;;;;2175572;40;3425;-89
2023/09/21 09:58:32;796729.00;2.66;1375.42;68156.00;0.23;118.57;;;;;29.60;1.00;;;;;;2269819;61;1353;-91
2023/09/21 10:01:00;312124.00;1.04;538.76;63486.00;0.21;110.50;;;;;29.70;1.00;;;;;;2271791;61;1262;-89
2023/09/21 10:03:32;175390.00;0.58;303.55;40519.00;0.14;70.79;;;;;29.90;1.00;;;;;;2272187;61;1082;-90
2023/09/21 10:06:01;371652.00;1.24;641.08;81033.00;0.27;140.82;;;;;29.70;1.00;;;;;;2287858;40;3648;-90
2023/09/21 10:11:03;977260.00;3.26;1692.24;70060.00;0.23;121.86;;;;;30.10;1.00;;;;;;2265546;61;1421;-90
2023/09/21 10:13:30;194613.00;0.65;336.65;65045.00;0.22;113.20;;;;;30.30;1.00;;;;;;2264200;61;966;-90
2023/09/21 10:16:01;224281.00;0.75;387.71;70973.00;0.24;123.44;;;;;30.00;1.00;;;;;;2263833;61;926;-90
2023/09/21 10:18:35;408471.00;1.36;704.37;116941.00;0.39;202.81;;;;;30.20;1.00;;;;;;2264162;61;1284;-90
2023/09/21 10:21:16;181491.00;0.60;314.06;63074.00;0.21;109.79;;;;;30.40;1.00;;;;;;2264174;61;1387;-90
2023/09/21 10:24:03;386502.00;1.29;666.60;113574.00;0.38;197.00;;;;;30.10;1.00;;;;;;2264164;61;1125;-89
2023/09/21 10:26:33;281379.00;0.94;485.91;0.00;0.00;0.62;;;;;30.20;1.00;;;;;;2264080;61;1695;-89
2023/09/21 10:29:03;185406.00;0.62;320.80;0.00;0.00;0.62;;;;;30.10;1.00;;;;;;2264111;61;1919;-89
2023/09/21 10:31:32;303149.00;1.01;523.33;0.00;0.00;0.62;;;;;30.50;1.00;;;;;;2264214;61;1202;-90
2023/09/21 10:34:16;333107.00;1.11;574.83;0.00;0.00;0.62;;;;;30.60;1.00;;;;;;2264048;61;1703;-89
2023/09/21 10:36:49;130700.00;0.44;226.54;0.00;0.00;0.62;;;;;30.90;1.00;;;;;;2264240;61;1032;-88
2023/09/21 10:39:29;243569.00;0.81;420.89;0.00;0.00;0.62;;;;;30.90;1.00;;;;;;2264111;61;1389;-90
2023/09/21 10:42:17;289701.00;0.97;500.22;45725.00;0.15;79.79;;;;;30.60;1.00;;;;;;2264107;61;1042;-91
2023/09/21 10:45:00;121840.00;0.41;211.26;0.00;0.00;0.62;;;;;30.40;1.00;;;;;;2264122;61;1108;-89
2023/09/21 10:47:29;19996.00;0.07;35.26;0.00;0.00;0.62;;;;;30.50;1.00;;;;;;2264076;61;1044;-91
2023/09/21 10:50:02;247283.00;0.82;427.28;0.00;0.00;0.62;;;;;30.50;1.00;;;;;;2263993;61;1432;-91
2023/09/21 10:52:31;223052.00;0.74;385.59;0.00;0.00;0.62;;;;;30.50;1.00;;;;;;2264144;61;1726;-89
2023/09/21 10:54:58;333025.00;1.11;574.69;0.00;0.00;0.62;;;;;30.70;1.00;;;;;;2264060;61;1607;-89
2023/09/21 10:57:27;237029.00;0.79;409.64;0.00;0.00;0.62;;;;;30.30;1.00;;;;;;2264030;61;1660;-87
2023/09/21 10:59:55;324936.00;1.08;560.78;19438.00;0.06;34.30;;;;;30.10;1.00;;;;;;2264543;61;1291;-89
2023/09/21 11:02:23;158642.00;0.53;274.70;0.00;0.00;0.62;;;;;29.80;1.00;;;;;;2264733;61;1069;-89
2023/09/21 11:04:52;405365.00;1.35;699.03;17118.00;0.06;30.28;;;;;29.40;1.00;;;;;;2264688;61;2352;-90
2023/09/21 11:07:21;677348.00;2.26;1167.98;53726.00;0.18;93.63;;;;;29.60;1.00;;;;;;2264784;61;1171;-91
2023/09/21 11:09:49;638461.00;2.13;1100.68;10447.00;0.03;18.72;;;;;29.40;1.00;;;;;;2266681;61;1928;-91
2023/09/21 11:12:17;774241.00;2.58;1336.24;78190.00;0.26;135.91;;;;;29.40;1.00;;;;;;2268712;61;1020;-91
2023/09/21 11:14:47;478770.00;1.60;825.28;67699.00;0.23;117.78;;;;;29.60;1.00;;;;;;2268710;61;1245;-90
2023/09/21 11:17:16;519657.00;1.73;895.67;7034.00;0.02;12.81;;;;;29.90;1.00;;;;;;2268721;61;1018;-90
2023/09/21 11:19:44;560856.00;1.87;966.68;63927.00;0.21;111.26;;;;;30.50;1.00;;;;;;2268619;61;1624;-90
2023/09/21 11:22:11;449525.00;1.50;774.97;63640.00;0.21;110.77;;;;;30.80;1.00;;;;;;2268704;61;1067;-89
2023/09/21 11:24:38;455655.00;1.52;785.51;66509.00;0.22;115.73;;;;;31.40;1.00;;;;;;2268652;61;1611;-89
2023/09/21 11:27:09;437668.00;1.46;754.57;68748.00;0.23;119.60;;;;;31.40;1.00;;;;;;2268678;61;1018;-89
2023/09/21 11:29:36;415794.00;1.39;716.96;63724.00;0.21;110.91;;;;;31.40;1.00;;;;;;2268581;61;2020;-88
2023/09/21 11:32:05;442021.00;1.47;762.06;78798.00;0.26;136.96;;;;;31.50;1.00;;;;;;2268681;61;1024;-88
2023/09/21 11:34:39;178211.00;0.59;308.41;61742.00;0.21;107.49;;;;;31.20;1.00;;;;;;2268631;61;1081;-89
2023/09/21 11:37:07;408528.00;1.36;704.47;58429.00;0.19;101.76;;;;;31.20;1.00;;;;;;2268649;61;1091;-90
2023/09/21 11:39:34;585099.00;1.95;1008.50;65193.00;0.22;113.45;;;;;30.90;1.00;;;;;;2268580;61;2531;-87
2023/09/21 11:42:01;468987.00;1.56;808.45;66007.00;0.22;114.86;;;;;30.60;1.00;;;;;;2268617;61;1017;-89
2023/09/21 11:44:30;237684.00;0.79;410.77;67260.00;0.22;117.03;;;;;30.50;1.00;;;;;;2268467;61;1649;-90
2023/09/21 11:46:58;423730.00;1.41;730.60;67469.00;0.22;117.39;;;;;30.50;1.00;;;;;;2268576;61;1066;-89
2023/09/21 11:49:40;262884.00;0.88;454.11;56762.00;0.19;98.88;;;;;30.40;1.00;;;;;;2268558;61;2014;-88
2023/09/21 11:52:09;251028.00;0.84;433.72;66445.00;0.22;115.62;;;;;30.60;1.00;;;;;;2268180;61;1174;-90
2023/09/21 11:54:38;355877.00;1.19;613.96;111401.00;0.37;193.25;;;;;30.40;1.00;;;;;;2268531;61;1785;-89
2023/09/21 11:57:06;725555.00;2.42;1251.58;67995.00;0.23;118.30;;;;;29.90;1.00;;;;;;2268522;61;1746;-89
2023/09/21 11:59:39;700967.00;2.34;1208.92;87473.00;0.29;151.94;;;;;30.00;1.00;;;;;;2268537;61;1399;-89
2023/09/21 12:02:09;531356.00;1.77;915.83;60045.00;0.20;104.55;;;;;30.40;1.00;;;;;;2268417;61;1725;-89
2023/09/21 12:04:37;405154.00;1.35;698.67;61073.00;0.20;106.33;;;;;30.50;1.00;;;;;;2268454;61;1815;-88
2023/09/21 12:07:05;452616.00;1.51;780.28;65554.00;0.22;114.08;;;;;30.70;1.00;;;;;;2268510;61;1057;-89
2023/09/21 12:09:36;289169.00;0.96;499.30;58742.00;0.20;102.30;;;;;30.70;1.00;;;;;;2268175;61;1911;-88
2023/09/21 12:12:04;449449.00;1.50;774.83;182548.00;0.61;315.88;;;;;31.40;1.00;;;;;;2268457;61;1880;-88
2023/09/21 12:14:31;213551.00;0.71;369.25;65106.00;0.22;113.30;;;;;31.60;1.00;;;;;;2268383;61;1101;-88
2023/09/21 12:17:02;301723.00;1.01;520.88;62127.00;0.21;108.15;;;;;31.90;1.00;;;;;;2268325;61;1452;-89
2023/09/21 12:19:30;169123.00;0.56;292.76;62747.00;0.21;109.23;;;;;31.80;1.00;;;;;;2268379;61;1289;-87
2023/09/21 12:21:58;254097.00;0.85;439.00;65167.00;0.22;113.41;;;;;31.60;1.00;;;;;;2268345;61;1035;-89
2023/09/21 12:24:25;227205.00;0.76;392.74;59806.00;0.20;104.14;;;;;31.30;1.00;;;;;;2268412;61;1095;-88
2023/09/21 12:26:53;268707.00;0.90;464.12;39010.00;0.13;68.18;;;;;31.20;1.00;;;;;;2268402;61;1116;-89
2023/09/21 12:29:20;167947.00;0.56;290.73;69000.00;0.23;120.03;;;;;31.60;1.00;;;;;;2268421;61;1998;-88
2023/09/21 12:31:47;418278.00;1.39;721.23;65114.00;0.22;113.32;;;;;31.80;1.00;;;;;;2268392;61;969;-91
2023/09/21 12:34:15;409730.00;1.37;706.53;61186.00;0.20;106.53;;;;;31.30;1.00;;;;;;2268457;61;1078;-90
2023/09/21 12:36:42;220633.00;0.74;381.43;62680.00;0.21;109.11;;;;;31.30;1.00;;;;;;2268510;61;1023;-89
2023/09/21 12:39:10;208258.00;0.69;360.14;63859.00;0.21;111.15;;;;;30.80;1.00;;;;;;2268460;61;1367;-89
2023/09/21 12:41:38;237694.00;0.79;410.78;64265.00;0.21;111.85;;;;;30.90;1.00;;;;;;2268466;61;1026;-88
2023/09/21 12:44:06;170094.00;0.57;294.43;60912.00;0.20;106.05;;;;;31.10;1.00;;;;;;2268382;61;1577;-88
2023/09/21 12:46:33;244243.00;0.81;422.05;54624.00;0.18;95.18;;;;;31.00;1.00;;;;;;2268443;61;1022;-88
2023/09/21 12:49:00;222928.00;0.74;385.38;67660.00;0.23;117.72;;;;;31.00;1.00;;;;;;2268331;61;1993;-90
2023/09/21 12:51:29;201546.00;0.67;348.58;66595.00;0.22;115.88;;;;;31.10;1.00;;;;;;2268451;61;1087;-89
2023/09/21 12:53:57;168353.00;0.56;291.43;66384.00;0.22;115.51;;;;;31.10;1.00;;;;;;2268310;61;1755;-88
2023/09/21 12:56:23;460556.00;1.54;793.94;89319.00;0.30;155.13;;;;;31.40;1.00;;;;;;2268412;61;1106;-88
2023/09/21 12:58:50;321029.00;1.07;554.07;68164.00;0.23;118.59;;;;;31.60;1.00;;;;;;2268429;61;1180;-87
2023/09/21 13:01:17;731811.00;2.44;1262.45;178925.00;0.60;309.64;;;;;31.20;1.00;;;;;;2268392;61;1317;-87
2023/09/21 13:03:44;286711.00;0.96;495.08;0.00;0.00;0.62;;;;;30.90;1.00;;;;;;2268445;61;1035;-89
2023/09/21 13:06:13;170527.00;0.57;295.17;0.00;0.00;0.62;;;;;30.50;1.00;;;;;;2268414;61;958;-88
2023/09/21 13:08:41;0.00;0.00;0.62;0.00;0.00;0.62;;;;;30.80;1.00;;;;;;2268214;61;2293;-88
2023/09/21 13:11:08;109155.00;0.36;189.37;0.00;0.00;0.62;;;;;31.00;1.00;;;;;;2268320;61;1453;-89
2023/09/21 13:13:36;128972.00;0.43;223.56;0.00;0.00;0.62;;;;;31.40;1.00;;;;;;2268315;61;1017;-89
2023/09/21 13:16:04;299669.00;1.00;517.35;62974.00;0.21;109.62;;;;;31.60;1.00;;;;;;2268238;61;1059;-89
2023/09/21 13:18:32;162182.00;0.54;280.80;67263.00;0.22;117.03;;;;;31.40;1.00;;;;;;2268305;61;1563;-88
2023/09/21 13:20:59;20066.00;0.07;35.38;63452.00;0.21;110.44;;;;;31.60;1.00;;;;;;2268247;61;1408;-87
2023/09/21 13:23:27;117519968.00;391.73;65745296.00;52478.00;0.17;91.47;;;;;31.70;1.00;;;;;;2268163;61;897;-88
2023/09/21 13:25:56;168209.00;0.56;291.18;71075.00;0.24;123.62;;;;;31.80;1.00;;;;;;2268325;61;1082;-88
2023/09/21 13:28:23;263561.00;0.88;455.27;64199.00;0.21;111.74;;;;;31.80;1.00;;;;;;2268240;61;1931;-88
2023/09/21 13:30:50;88033.00;0.29;152.91;0.00;0.00;0.62;;;;;31.60;1.00;;;;;;2268210;61;1702;-88
2023/09/21 13:33:17;277364.00;0.92;479.01;111197.00;0.37;192.90;;;;;31.90;1.00;;;;;;2268298;61;1013;-87
2023/09/21 13:35:44;131691.00;0.44;228.25;0.00;0.00;0.62;;;;;32.10;1.00;;;;;;2268197;61;1726;-87
2023/09/21 13:38:11;298078.00;0.99;514.62;65461.00;0.22;113.92;;;;;32.10;1.00;;;;;;2268266;61;1288;-87
2023/09/21 13:40:38;297977.00;0.99;514.44;56159.00;0.19;97.84;;;;;32.10;1.00;;;;;;2268200;61;1437;-87
2023/09/21 13:43:06;204675.00;0.68;353.97;61432.00;0.20;106.95;;;;;32.10;1.00;;;;;;2268190;61;1780;-88
2023/09/21 13:45:34;0.00;0.00;0.62;0.00;0.00;0.62;;;;;32.30;1.00;;;;;;2268300;61;1155;-88
2023/09/21 13:48:03;0.00;0.00;0.62;0.00;0.00;0.62;;;;;31.90;1.00;;;;;;2268258;61;902;-87
2023/09/21 13:50:31;0.00;0.00;0.62;0.00;0.00;0.62;;;;;32.00;1.00;;;;;;2268091;61;2017;-87
2023/09/21 13:53:00;190867.00;0.64;330.20;0.00;0.00;0.62;;;;;32.20;1.00;;;;;;2268263;61;1009;-88
2023/09/21 13:55:27;188028.00;0.63;325.31;67533.00;0.23;117.50;;;;;32.40;1.00;;;;;;2268173;61;1105;-88
2023/09/21 13:57:54;430971.00;1.44;743.06;100088.00;0.33;173.72;;;;;32.30;1.00;;;;;;2268174;61;1831;-87
2023/09/21 14:00:22;315394.00;1.05;544.38;62466.00;0.21;108.74;;;;;32.00;1.00;;;;;;2268165;61;1395;-88
2023/09/21 14:02:49;207795.00;0.69;359.34;59381.00;0.20;103.41;;;;;32.00;1.00;;;;;;2268280;61;1038;-87
2023/09/21 14:05:21;18129.00;0.06;32.03;0.00;0.00;0.62;;;;;31.70;1.00;;;;;;2268270;61;1064;-87
2023/09/21 14:07:49;267045.00;0.89;461.26;96208.00;0.32;167.03;;;;;31.40;1.00;;;;;;2268256;61;1121;-88
2023/09/21 14:10:16;337604.00;1.13;582.56;56454.00;0.19;98.35;;;;;31.60;1.00;;;;;;2268109;61;1996;-88
2023/09/21 14:12:43;211634.00;0.71;365.95;60236.00;0.20;104.88;;;;;31.80;1.00;;;;;;2268270;61;956;-89
2023/09/21 14:15:11;189718.00;0.63;328.22;55304.00;0.18;96.36;;;;;31.60;1.00;;;;;;2268222;61;1130;-88
2023/09/21 14:17:39;183225.00;0.61;317.04;61130.00;0.20;106.43;;;;;31.30;1.00;;;;;;2268189;61;1706;-87
2023/09/21 14:20:08;242914.00;0.81;419.76;73138.00;0.24;127.18;;;;;30.70;1.00;;;;;;2268132;61;1707;-88
2023/09/21 14:22:37;250145.00;0.83;432.20;69835.00;0.23;121.48;;;;;30.50;1.00;;;;;;2268276;61;1098;-89
2023/09/21 14:25:05;297636.00;0.99;513.86;61670.00;0.21;107.36;;;;;30.80;1.00;;;;;;2268209;61;1110;-88
2023/09/21 14:27:34;369262.00;1.23;636.97;79178.00;0.26;137.62;;;;;31.10;1.00;;;;;;2268202;61;929;-88
2023/09/21 14:30:01;459378.00;1.53;791.91;162231.00;0.54;280.88;;;;;31.30;1.00;;;;;;2268171;61;1994;-88
2023/09/21 14:32:29;442883.00;1.48;763.54;58411.00;0.19;101.73;;;;;31.20;1.00;;;;;;2268156;61;1072;-89
2023/09/21 14:34:57;240440.00;0.80;415.51;67326.00;0.22;117.14;;;;;31.20;1.00;;;;;;2268870;61;1145;-88
2023/09/21 14:37:26;293516.00;0.98;506.77;59498.00;0.20;103.61;;;;;31.20;1.00;;;;;;2268856;61;1031;-88
2023/09/21 14:39:56;218507.00;0.73;377.77;65202.00;0.22;113.47;;;;;31.40;1.00;;;;;;2268803;61;1266;-90
2023/09/21 14:42:23;235415.00;0.78;406.86;64785.00;0.22;112.75;;;;;31.40;1.00;;;;;;2268814;61;1097;-89
2023/09/21 14:44:51;270147.00;0.90;466.60;58639.00;0.20;102.12;;;;;31.60;1.00;;;;;;2268828;61;1063;-88
2023/09/21 14:47:18;301628.00;1.01;520.72;67473.00;0.22;117.39;;;;;31.80;1.00;;;;;;2268848;61;1130;-89
2023/09/21 14:49:45;271745.00;0.91;469.34;61888.00;0.21;107.74;;;;;31.10;1.00;;;;;;2268771;61;2004;-88
2023/09/21 14:52:14;201087.00;0.67;347.79;68337.00;0.23;118.89;;;;;31.30;1.00;;;;;;2268829;61;1106;-89
2023/09/21 14:54:42;216997.00;0.72;375.18;63494.00;0.21;110.52;;;;;31.30;1.00;;;;;;2268799;61;1399;-88
2023/09/21 14:57:09;222460.00;0.74;384.58;64106.00;0.21;111.57;;;;;31.50;1.00;;;;;;2268740;61;1580;-88
2023/09/21 14:59:36;294713.00;0.98;508.83;56372.00;0.19;98.20;;;;;31.60;1.00;;;;;;2268668;61;1716;-88
2023/09/21 15:02:03;352416.00;1.17;608.01;50251.00;0.17;87.62;;;;;31.30;1.00;;;;;;2268727;61;1487;-88
2023/09/21 15:04:30;309070.00;1.03;533.51;53262.00;0.18;92.83;;;;;31.10;1.00;;;;;;2268753;61;1014;-88
2023/09/21 15:06:56;217799.00;0.73;376.56;73450.00;0.24;127.72;;;;;31.10;1.00;;;;;;2268833;61;1036;-88
2023/09/21 15:09:25;381997.00;1.27;658.86;59523.00;0.20;103.65;;;;;31.10;1.00;;;;;;2268638;61;2003;-88
2023/09/21 15:11:52;281463.00;0.94;486.05;60319.00;0.20;105.03;;;;;31.20;1.00;;;;;;2268754;61;1027;-87
2023/09/21 15:14:19;359653.00;1.20;620.45;47887.00;0.16;83.53;;;;;31.40;1.00;;;;;;2268631;61;1007;-88
2023/09/21 15:16:46;338790.00;1.13;584.59;63867.00;0.21;111.16;;;;;31.30;1.00;;;;;;2282349;40;3608;-87
2023/09/21 15:19:14;288313.00;0.96;497.83;37353.00;0.12;65.31;;;;;31.40;1.00;;;;;;2272708;61;1295;-88
2023/09/21 15:21:40;134574.00;0.45;233.22;0.00;0.00;0.62;;;;;31.40;1.00;;;;;;2276565;56;3759;-87
2023/09/21 15:24:08;0.00;0.00;0.62;0.00;0.00;0.62;;;;;31.60;1.00;;;;;;2268771;61;1077;-89
2023/09/21 15:26:37;121441.00;0.40;210.57;0.00;0.00;0.62;;;;;31.70;1.00;;;;;;2268668;61;1463;-89
2023/09/21 15:29:05;397876.00;1.33;686.15;0.00;0.00;0.62;;;;;31.40;1.00;;;;;;2311868;40;3583;-89
2023/09/21 15:31:33;200738.00;0.67;347.19;0.00;0.00;0.62;;;;;31.20;1.00;;;;;;2272590;61;1594;-89
2023/09/21 15:36:35;556542.00;1.86;959.24;0.00;0.00;0.62;;;;;31.40;1.00;;;;;;2266184;61;1423;-88
2023/09/21 15:39:03;177791.00;0.59;307.69;0.00;0.00;0.62;;;;;31.40;1.00;;;;;;2318786;56;3760;-90
2023/09/21 15:44:13;726136.00;2.42;1252.59;90266.00;0.30;156.77;;;;;31.30;1.00;;;;;;2298366;55;3658;-89
2023/09/21 15:46:40;197203.00;0.66;341.11;0.00;0.00;0.62;;;;;31.00;1.00;;;;;;2315366;40;3619;-88
2023/09/21 15:56:49;1517985.00;5.06;2677.01;68861.00;0.23;119.79;;;;;29.60;1.00;;;;;;2298988;40;3522;-91
2023/09/21 15:59:19;222914.00;0.74;385.36;68941.00;0.23;119.93;;;;;29.10;1.00;;;;;;2386573;40;3766;-89
2023/09/21 16:01:47;404600.00;1.35;697.71;62775.00;0.21;109.27;;;;;29.10;1.00;;;;;;2375282;55;3763;-90
2023/09/21 16:16:56;1900367.00;6.33;3421.71;0.00;0.00;0.62;;;;;29.30;1.00;;;;;;2274557;55;3656;-89
2023/09/21 16:24:25;1127933.00;3.76;1960.45;6997.00;0.02;12.75;;;;;29.60;1.00;;;;;;2270174;61;1425;-90
2023/09/21 16:26:55;546419.00;1.82;941.79;0.00;0.00;0.62;;;;;29.60;1.00;;;;;;2268443;61;1738;-89
2023/09/21 16:31:52;329196.00;1.10;568.10;0.00;0.00;0.62;;;;;29.50;1.00;;;;;;2270025;61;1433;-89
2023/09/21 16:34:21;462525.00;1.54;797.33;0.00;0.00;0.62;;;;;29.40;1.00;;;;;;2268350;61;1730;-88
2023/09/21 16:36:48;177116.00;0.59;306.52;0.00;0.00;0.62;;;;;29.50;1.00;;;;;;2268386;61;1271;-87
2023/09/21 16:39:15;248074.00;0.83;428.64;0.00;0.00;0.62;;;;;29.60;1.00;;;;;;2268345;61;1740;-90
2023/09/21 16:41:42;168119.00;0.56;291.03;0.00;0.00;0.62;;;;;29.60;1.00;;;;;;2268414;61;1684;-90
2023/09/21 16:44:09;271794.00;0.91;469.43;0.00;0.00;0.62;;;;;29.60;1.00;;;;;;2268333;61;1630;-87
2023/09/21 16:49:06;908260.00;3.03;1570.63;0.00;0.00;0.62;;;;;29.40;1.00;;;;;;2144568;40;3500;-90
2023/09/21 16:51:35;293514.00;0.98;506.77;0.00;0.00;0.62;;;;;29.30;1.00;;;;;;2276396;61;1943;-88
2023/09/21 16:54:02;250388.00;0.83;432.62;0.00;0.00;0.62;;;;;29.20;1.00;;;;;;2283304;40;3655;-88
2023/09/21 16:56:32;260334.00;0.87;449.72;0.00;0.00;0.62;;;;;29.20;1.00;;;;;;2272070;61;1172;-88
2023/09/21 16:58:59;90071.00;0.30;156.43;0.00;0.00;0.62;;;;;29.00;1.00;;;;;;2324900;40;3744;-88
2023/09/21 17:01:33;294335.00;0.98;508.18;0.00;0.00;0.62;;;;;29.00;1.00;;;;;;2272192;61;1580;-88
2023/09/21 17:06:32;809746.00;2.70;1398.13;0.00;0.00;0.62;;;;;29.00;1.00;;;;;;2269996;61;1431;-89
2023/09/21 17:09:00;56213.00;0.19;97.93;0.00;0.00;0.62;;;;;28.90;1.00;;;;;;2268333;61;1122;-90
2023/09/21 17:11:27;232110.00;0.77;401.18;0.00;0.00;0.62;;;;;28.80;1.00;;;;;;2264097;61;1932;-90
2023/09/21 17:13:55;192127.00;0.64;332.37;0.00;0.00;0.62;;;;;28.80;1.00;;;;;;2264198;61;1609;-89
2023/09/21 17:16:22;230218.00;0.77;397.92;28191.00;0.09;49.45;;;;;28.80;1.00;;;;;;2264201;61;946;-88
2023/09/21 17:18:49;141298.00;0.47;244.81;0.00;0.00;0.62;;;;;28.70;1.00;;;;;;2264264;61;961;-89
2023/09/21 17:21:16;110785.00;0.37;192.18;0.00;0.00;0.62;;;;;28.80;1.00;;;;;;2264240;61;1365;-90
2023/09/21 17:23:44;90415.00;0.30;157.02;0.00;0.00;0.62;;;;;28.80;1.00;;;;;;2269894;40;3580;-89
2023/09/21 17:26:12;1131130.00;3.77;1966.19;0.00;0.00;0.62;;;;;28.70;1.00;;;;;;2286573;40;3605;-87
2023/09/21 17:28:39;532213.00;1.77;917.30;0.00;0.00;0.62;;;;;28.60;1.00;;;;;;2325792;40;3587;-89
2023/09/21 17:31:11;235893.00;0.79;407.69;0.00;0.00;0.62;;;;;28.50;1.00;;;;;;2264713;61;2009;-90
2023/09/21 17:33:37;269230.00;0.90;465.02;0.00;0.00;0.62;;;;;28.50;1.00;;;;;;2285633;41;3658;-88
2023/09/21 17:36:05;26907.00;0.09;47.23;0.00;0.00;0.62;;;;;28.40;1.00;;;;;;2272036;61;1117;-89
2023/09/21 17:38:32;153649.00;0.51;266.10;0.00;0.00;0.62;;;;;28.30;1.00;;;;;;2272030;61;2144;-87
2023/09/21 17:41:01;179260.00;0.60;310.22;0.00;0.00;0.62;;;;;28.20;1.00;;;;;;2272159;61;1262;-89
2023/09/21 17:43:31;15447.00;0.05;27.38;0.00;0.00;0.62;;;;;28.30;1.00;;;;;;2272019;61;1743;-88
2023/09/21 17:45:59;197428.00;0.66;341.50;0.00;0.00;0.62;;;;;28.10;1.00;;;;;;2295577;40;3608;-87
2023/09/21 17:48:25;68336.00;0.23;118.88;0.00;0.00;0.62;;;;;28.00;1.00;;;;;;2272120;61;990;-88
2023/09/21 17:50:53;107349.00;0.36;186.26;0.00;0.00;0.62;;;;;27.90;1.00;;;;;;2271873;61;2008;-89
2023/09/21 17:53:20;67107.00;0.22;116.76;0.00;0.00;0.62;;;;;27.80;1.00;;;;;;2271989;61;1025;-88
2023/09/21 17:55:49;79357.00;0.26;137.93;0.00;0.00;0.62;;;;;27.80;1.00;;;;;;2272080;61;1132;-86
2023/09/21 17:58:16;103399.00;0.34;179.44;0.00;0.00;0.62;;;;;27.80;1.00;;;;;;2272821;55;3727;-85
2023/09/21 18:00:45;28792.00;0.10;50.49;0.00;0.00;0.62;;;;;27.60;1.00;;;;;;2267919;61;1869;-85
2023/09/21 18:03:12;113380.00;0.38;196.66;0.00;0.00;0.62;;;;;27.10;1.00;;;;;;2267994;61;1020;-87
2023/09/21 18:05:38;93497.00;0.31;162.35;0.00;0.00;0.62;;;;;26.70;1.00;;;;;;2268164;61;1271;-87
2023/09/21 18:08:06;69455.00;0.23;120.82;0.00;0.00;0.62;;;;;26.90;1.00;;;;;;2267716;61;1031;-87
2023/09/21 18:10:37;384560.00;1.28;663.26;763.00;0.00;1.94;;;;;27.10;1.00;;;;;;2267828;61;1920;-86
2023/09/21 18:13:07;38911.00;0.13;68.00;0.00;0.00;0.62;;;;;27.30;1.00;;;;;;2267992;61;1304;-87
2023/09/21 18:15:34;385478.00;1.28;664.84;93695.00;0.31;162.69;;;;;27.50;1.00;;;;;;2274842;56;3740;-88
2023/09/21 18:18:03;66179.00;0.22;115.16;0.00;0.00;0.62;;;;;27.50;1.00;;;;;;2267929;61;974;-87
2023/09/21 18:20:30;22059.00;0.07;38.84;0.00;0.00;0.62;;;;;27.60;1.00;;;;;;2274794;56;3818;-87
2023/09/21 18:23:00;0.00;0.00;0.62;0.00;0.00;0.62;;;;;27.50;1.00;;;;;;2271077;40;3637;-86
2023/09/21 18:25:27;0.00;0.00;0.62;0.00;0.00;0.62;;;;;27.60;1.00;;;;;;2271792;61;1637;-88
2023/09/21 18:27:55;298477.00;0.99;515.30;0.00;0.00;0.62;;;;;27.50;1.00;;;;;;2279281;40;3591;-87
2023/09/21 18:30:23;413726.00;1.38;713.40;48502.00;0.16;84.60;;;;;27.50;1.00;;;;;;2271846;61;2008;-87
2023/09/21 18:32:51;0.00;0.00;0.62;0.00;0.00;0.62;;;;;27.50;1.00;;;;;;2272007;61;1268;-86
2023/09/21 18:35:19;73584.00;0.25;127.95;0.00;0.00;0.62;;;;;27.50;1.00;;;;;;2271987;61;1165;-87
2023/09/21 18:37:47;245536.00;0.82;424.27;0.00;0.00;0.62;;;;;27.60;1.00;;;;;;2283716;56;3786;-86
2023/09/21 18:40:14;46398.00;0.15;80.96;0.00;0.00;0.62;;;;;27.60;1.00;;;;;;2271848;61;1354;-86
2023/09/21 18:42:41;155748.00;0.52;269.71;0.00;0.00;0.62;;;;;27.50;1.00;;;;;;2271898;61;1035;-87
2023/09/21 18:45:10;67586.00;0.23;117.59;0.00;0.00;0.62;;;;;27.50;1.00;;;;;;2271927;61;1010;-87
2023/09/21 18:47:37;51666.00;0.17;90.07;0.00;0.00;0.62;;;;;26.80;1.00;;;;;;2271894;61;1029;-87
2023/09/21 18:50:07;113032.00;0.38;196.06;0.00;0.00;0.62;;;;;26.20;1.00;;;;;;2271867;61;1916;-87
2023/09/21 18:52:35;8050.00;0.03;14.57;0.00;0.00;0.62;;;;;26.10;1.00;;;;;;2272021;61;1708;-87
2023/09/21 18:55:02;36836.00;0.12;64.41;0.00;0.00;0.62;;;;;25.90;1.00;;;;;;2272091;61;1059;-87
2023/09/21 18:57:29;102617.00;0.34;178.09;0.00;0.00;0.62;;;;;25.50;1.00;;;;;;2272130;61;964;-86
2023/09/21 18:59:56;146268.00;0.49;253.38;0.00;0.00;0.62;;;;;25.10;1.00;;;;;;2271995;61;1285;-86